Time;durP1;ratioP1;P1;durP2;ratioP2;P2;SDS_P1;SDS_P2;PMS_P1;PMS_P2;Temp;Humidity;BMP_temperature;BMP_pressure;BME280_temperature;BME280_humidity;BME280_pressure;Samples;Min_cycle;Max_cycle;Signal;HPM_P1;HPM_P2
2023/03/31 00:00:45;;;;;;;1.63;0.77;;;21.50;99.90;;;;;;4915015;29;20203;-75
2023/03/31 00:03:20;;;;;;;0.77;0.70;;;21.60;99.90;;;;;;4897965;29;20231;-75
2023/03/31 00:05:57;;;;;;;3.03;0.70;;;21.70;99.90;;;;;;4898639;29;20261;-75
2023/03/31 00:08:34;;;;;;;1.52;0.93;;;21.80;99.90;;;;;;4895449;29;20290;-75
2023/03/31 00:11:06;;;;;;;0.95;0.63;;;21.80;99.90;;;;;;4898139;29;20202;-75
2023/03/31 00:13:37;;;;;;;1.67;0.85;;;21.90;99.90;;;;;;4895926;29;20208;-75
2023/03/31 00:16:10;;;;;;;1.50;0.40;;;22.00;99.90;;;;;;4892294;29;20233;-75
2023/03/31 00:18:46;;;;;;;1.77;0.82;;;22.00;99.90;;;;;;4887185;29;20203;-80
2023/03/31 00:21:32;;;;;;;1.83;0.82;;;21.90;99.90;;;;;;4884116;29;20210;-75
2023/03/31 00:24:04;;;;;;;5.13;1.17;;;21.90;99.90;;;;;;4880321;29;20212;-75
2023/03/31 00:26:36;;;;;;;2.03;0.65;;;22.00;99.90;;;;;;4886773;29;20207;-75
2023/03/31 00:29:09;;;;;;;1.67;0.57;;;22.00;99.90;;;;;;4886017;29;20203;-76
2023/03/31 00:31:40;;;;;;;0.95;0.70;;;22.10;99.90;;;;;;4884927;29;20210;-76
2023/03/31 00:34:11;;;;;;;1.00;0.40;;;22.20;99.90;;;;;;4888614;29;20198;-74
2023/03/31 00:36:46;;;;;;;2.92;0.77;;;22.30;99.90;;;;;;4893278;29;20203;-75
2023/03/31 00:39:19;;;;;;;0.98;0.50;;;22.30;99.90;;;;;;4895996;29;20207;-74
2023/03/31 00:41:50;;;;;;;1.70;0.80;;;22.50;99.90;;;;;;4897693;29;20585;-74
2023/03/31 00:44:23;;;;;;;0.90;0.50;;;22.50;99.90;;;;;;4895379;29;20203;-74
2023/03/31 00:46:56;;;;;;;3.25;0.98;;;22.60;99.90;;;;;;4898904;29;20203;-74
2023/03/31 00:49:31;;;;;;;1.80;0.55;;;22.50;99.90;;;;;;4898829;29;20195;-74
2023/03/31 00:52:09;;;;;;;1.33;0.38;;;22.50;99.90;;;;;;4898549;29;20384;-74
2023/03/31 00:54:41;;;;;;;0.52;0.30;;;22.70;99.90;;;;;;4898545;29;20693;-74
2023/03/31 00:57:13;;;;;;;0.98;0.50;;;22.80;99.90;;;;;;4898306;29;20238;-74
2023/03/31 00:59:48;;;;;;;0.93;0.40;;;22.90;99.90;;;;;;4898492;29;20199;-74
2023/03/31 01:02:20;;;;;;;1.52;0.38;;;23.00;99.90;;;;;;4898445;29;20682;-75
2023/03/31 01:04:56;;;;;;;0.90;0.50;;;23.10;99.90;;;;;;4878672;29;20244;-75
2023/03/31 01:07:34;;;;;;;0.43;0.30;;;23.10;99.90;;;;;;4878345;29;20207;-75
2023/03/31 01:10:06;;;;;;;1.45;0.63;;;23.20;99.90;;;;;;4887666;29;20210;-74
2023/03/31 01:12:41;;;;;;;0.30;0.30;;;23.30;99.90;;;;;;4898642;29;20191;-75
2023/03/31 01:15:13;;;;;;;1.45;0.32;;;23.40;99.90;;;;;;4898399;29;20201;-74
2023/03/31 01:17:46;;;;;;;1.00;0.52;;;23.50;99.90;;;;;;4898258;29;20202;-74
2023/03/31 01:20:24;;;;;;;1.38;0.60;;;23.60;99.90;;;;;;4897812;29;20206;-75
2023/03/31 01:23:31;;;;;;;0.65;0.40;;;23.50;99.90;;;;;;4898234;29;20226;-74
2023/03/31 01:27:03;;;;;;;2.83;0.50;;;23.50;99.90;;;;;;4898292;29;20569;-74
2023/03/31 01:30:05;;;;;;;1.60;0.38;;;23.60;99.90;;;;;;4839960;29;20238;-74
2023/03/31 01:33:06;;;;;;;0.63;0.40;;;23.90;99.90;;;;;;4865426;29;20636;-75
2023/03/31 01:36:00;;;;;;;1.55;0.30;;;24.10;99.90;;;;;;4898136;29;20298;-74
2023/03/31 01:39:03;;;;;;;1.13;0.55;;;24.10;99.90;;;;;;4898227;29;20198;-74
2023/03/31 01:41:50;;;;;;;1.33;0.70;;;24.00;99.90;;;;;;4897874;29;20572;-75
2023/03/31 01:44:30;;;;;;;0.50;0.50;;;24.00;99.90;;;;;;4898203;29;20220;-75
2023/03/31 01:47:07;;;;;;;0.50;0.50;;;24.00;99.90;;;;;;4895096;29;20206;-77
2023/03/31 01:49:43;;;;;;;1.02;0.50;;;24.10;99.90;;;;;;4898040;29;20195;-74
2023/03/31 01:52:21;;;;;;;1.48;0.32;;;24.20;99.90;;;;;;4898305;29;20203;-74
2023/03/31 01:54:57;;;;;;;0.30;0.30;;;24.30;99.90;;;;;;4897996;29;20191;-75
2023/03/31 01:57:34;;;;;;;0.70;0.40;;;24.20;99.90;;;;;;4897724;29;20710;-74
2023/03/31 02:00:10;;;;;;;0.45;0.30;;;24.30;99.90;;;;;;4898175;29;20194;-75
2023/03/31 02:02:45;;;;;;;1.00;0.40;;;24.10;99.90;;;;;;4896853;29;20256;-75
2023/03/31 02:05:19;;;;;;;0.43;0.43;;;24.10;99.90;;;;;;4897869;29;20281;-74
2023/03/31 02:07:54;;;;;;;0.65;0.50;;;24.20;99.90;;;;;;4897810;29;20199;-74
2023/03/31 02:10:36;;;;;;;0.65;0.30;;;24.30;99.90;;;;;;4894798;29;20681;-75
2023/03/31 02:13:11;;;;;;;1.15;0.50;;;24.40;99.90;;;;;;4897808;29;20199;-74
2023/03/31 02:15:46;;;;;;;1.75;0.50;;;24.40;99.90;;;;;;4898099;29;20627;-75
2023/03/31 02:18:20;;;;;;;4.30;0.50;;;24.50;99.90;;;;;;4897799;29;20666;-73
2023/03/31 02:20:53;;;;;;;1.17;0.40;;;24.60;99.90;;;;;;4897129;29;20201;-74
2023/03/31 02:23:28;;;;;;;0.70;0.70;;;24.70;99.90;;;;;;4881651;29;20219;-73
2023/03/31 02:26:04;;;;;;;0.68;0.50;;;24.60;99.90;;;;;;4888331;29;20255;-73
2023/03/31 02:28:38;;;;;;;0.50;0.40;;;24.60;99.90;;;;;;4889546;29;20542;-73
2023/03/31 02:31:24;;;;;;;1.08;0.40;;;24.70;99.90;;;;;;4883577;29;20187;-74
2023/03/31 02:33:55;;;;;;;2.33;0.40;;;24.70;99.90;;;;;;4893338;29;20674;-73
2023/03/31 02:36:26;;;;;;;2.03;0.60;;;24.80;99.90;;;;;;4882339;29;20203;-73
2023/03/31 02:39:00;;;;;;;1.00;0.32;;;24.80;99.90;;;;;;4899292;29;20203;-73
2023/03/31 02:41:32;;;;;;;0.95;0.40;;;24.80;99.90;;;;;;4900305;29;20566;-72
2023/03/31 02:44:05;;;;;;;0.85;0.40;;;24.70;99.90;;;;;;4900309;29;20230;-72
2023/03/31 02:46:36;;;;;;;0.52;0.30;;;24.70;99.90;;;;;;4898092;29;20211;-73
2023/03/31 02:49:09;;;;;;;0.45;0.30;;;24.70;99.90;;;;;;4900252;29;20573;-73
2023/03/31 02:52:11;;;;;;;0.73;0.47;;;24.70;99.90;;;;;;4899247;29;20206;-72
2023/03/31 02:55:06;;;;;;;0.47;0.43;;;24.80;99.90;;;;;;4890897;29;20202;-73
2023/03/31 02:57:54;;;;;;;1.30;0.30;;;24.80;99.90;;;;;;4892938;29;20651;-74
2023/03/31 03:00:40;;;;;;;0.40;0.40;;;24.90;99.90;;;;;;4899089;29;20199;-73
2023/03/31 03:03:24;;;;;;;0.75;0.50;;;24.90;99.90;;;;;;4899412;29;20223;-73
2023/03/31 03:06:05;;;;;;;0.50;0.50;;;24.90;99.90;;;;;;4896290;29;20202;-72
2023/03/31 03:08:54;;;;;;;0.77;0.40;;;24.90;99.90;;;;;;4898421;29;20227;-73
2023/03/31 03:11:33;;;;;;;2.25;0.40;;;25.00;99.90;;;;;;4899965;29;20206;-72
2023/03/31 03:14:11;;;;;;;1.30;0.30;;;24.90;99.90;;;;;;4900781;29;20206;-73
2023/03/31 03:16:48;;;;;;;2.03;0.45;;;24.90;99.90;;;;;;4899520;29;20234;-73
2023/03/31 03:19:23;;;;;;;0.80;0.40;;;24.90;99.90;;;;;;4899894;29;20202;-75
2023/03/31 03:21:54;;;;;;;1.35;0.30;;;25.00;99.90;;;;;;4892946;29;20581;-74
2023/03/31 03:24:28;;;;;;;0.75;0.40;;;24.90;99.90;;;;;;4899788;29;20458;-73
2023/03/31 03:26:59;;;;;;;1.77;0.65;;;25.00;99.90;;;;;;4893829;29;20198;-73
2023/03/31 03:29:30;;;;;;;1.95;0.40;;;25.00;99.90;;;;;;4888966;29;20301;-74
2023/03/31 03:32:03;;;;;;;2.65;0.50;;;25.00;99.90;;;;;;4894295;29;20203;-74
2023/03/31 03:34:34;;;;;;;1.08;0.30;;;24.90;99.90;;;;;;4897926;29;20207;-73
2023/03/31 03:37:06;;;;;;;0.43;0.30;;;25.00;99.90;;;;;;4894413;29;20686;-73
2023/03/31 03:39:37;;;;;;;2.45;1.00;;;25.10;99.90;;;;;;4897365;29;20203;-72
2023/03/31 03:42:08;;;;;;;0.63;0.45;;;25.00;99.90;;;;;;4894613;29;20203;-73
2023/03/31 03:44:39;;;;;;;1.10;0.32;;;24.90;99.90;;;;;;4897230;29;20210;-75
2023/03/31 03:47:12;;;;;;;0.50;0.32;;;25.00;99.90;;;;;;4898356;29;20586;-73
2023/03/31 03:49:43;;;;;;;0.80;0.40;;;25.20;99.90;;;;;;4898801;29;20304;-73
2023/03/31 03:52:14;;;;;;;0.40;0.30;;;25.30;99.90;;;;;;4893934;29;20199;-73
2023/03/31 03:54:45;;;;;;;0.30;0.30;;;25.20;99.90;;;;;;4897247;29;20207;-73
2023/03/31 03:57:16;;;;;;;1.02;0.40;;;25.20;99.90;;;;;;4898644;29;20243;-74
2023/03/31 03:59:48;;;;;;;0.30;0.30;;;25.30;99.90;;;;;;4897945;29;20207;-73
2023/03/31 04:02:21;;;;;;;0.70;0.30;;;25.30;99.90;;;;;;4898066;29;20719;-72
2023/03/31 04:04:52;;;;;;;0.32;0.32;;;25.30;99.90;;;;;;4887186;29;20206;-72
2023/03/31 04:07:23;;;;;;;0.40;0.40;;;25.30;99.90;;;;;;4894082;29;20203;-73
2023/03/31 04:09:54;;;;;;;0.25;0.20;;;25.30;99.90;;;;;;4894538;29;20203;-73
2023/03/31 04:12:25;;;;;;;0.40;0.32;;;25.40;99.90;;;;;;4896839;29;20214;-75
2023/03/31 04:14:56;;;;;;;1.83;0.40;;;25.20;99.90;;;;;;4899636;29;20222;-74
2023/03/31 04:17:33;;;;;;;1.02;0.47;;;25.00;99.90;;;;;;4898463;29;20211;-74
2023/03/31 04:20:08;;;;;;;1.30;0.50;;;25.00;99.90;;;;;;4896065;29;20213;-74
2023/03/31 04:22:41;;;;;;;1.73;0.50;;;24.90;99.90;;;;;;4890524;29;20214;-75
2023/03/31 04:25:15;;;;;;;0.57;0.32;;;24.90;99.90;;;;;;4898016;29;20195;-77
2023/03/31 04:27:49;;;;;;;0.80;0.60;;;24.80;99.90;;;;;;4893642;29;20266;-74
2023/03/31 04:30:24;;;;;;;1.27;0.30;;;24.80;99.90;;;;;;4897753;29;20202;-74
2023/03/31 04:33:00;;;;;;;0.77;0.30;;;24.70;99.90;;;;;;4897491;29;20266;-76
2023/03/31 04:35:41;;;;;;;0.68;0.40;;;24.60;99.90;;;;;;4895417;29;20206;-75
2023/03/31 04:38:12;;;;;;;1.05;0.40;;;24.50;99.90;;;;;;4891805;29;20214;-74
2023/03/31 04:40:43;;;;;;;0.85;0.30;;;24.40;99.90;;;;;;4896772;29;20203;-75
2023/03/31 04:43:14;;;;;;;0.85;0.40;;;24.50;99.90;;;;;;4896797;29;20241;-75
2023/03/31 04:45:45;;;;;;;1.33;0.20;;;24.40;99.90;;;;;;4898757;29;20187;-76
2023/03/31 04:48:18;;;;;;;0.63;0.40;;;24.10;99.90;;;;;;4894734;29;20203;-75
2023/03/31 04:50:50;;;;;;;1.27;0.30;;;24.10;99.90;;;;;;4896960;29;20202;-74
2023/03/31 04:53:21;;;;;;;1.15;0.30;;;24.00;99.90;;;;;;4898241;29;20219;-75
2023/03/31 04:55:52;;;;;;;0.38;0.28;;;24.00;99.90;;;;;;4894731;29;20266;-74
2023/03/31 04:58:23;;;;;;;0.95;0.30;;;24.00;99.90;;;;;;4895430;29;20605;-73
2023/03/31 05:00:55;;;;;;;1.73;0.40;;;23.90;99.90;;;;;;4896502;29;20207;-74
2023/03/31 05:03:28;;;;;;;1.70;0.40;;;23.80;99.90;;;;;;4892828;29;20254;-75
2023/03/31 05:05:59;;;;;;;1.30;0.30;;;23.80;99.90;;;;;;4893769;29;20223;-74
2023/03/31 05:08:30;;;;;;;1.33;0.30;;;23.70;99.90;;;;;;4894151;29;20207;-73
2023/03/31 05:11:02;;;;;;;1.60;0.50;;;23.60;99.90;;;;;;4896287;29;20230;-73
2023/03/31 05:13:33;;;;;;;1.35;0.22;;;23.50;99.90;;;;;;4879964;29;20532;-74
2023/03/31 05:16:11;;;;;;;0.30;0.28;;;23.50;99.90;;;;;;4896500;29;20246;-74
2023/03/31 05:18:45;;;;;;;0.30;0.20;;;23.60;99.90;;;;;;4898607;29;20206;-74
2023/03/31 05:21:17;;;;;;;1.15;0.25;;;23.50;99.90;;;;;;4898418;29;20207;-73
2023/03/31 05:23:48;;;;;;;0.50;0.30;;;23.50;99.90;;;;;;4898299;29;20695;-74
2023/03/31 05:26:21;;;;;;;2.30;0.30;;;23.40;99.90;;;;;;4897399;29;20194;-74
2023/03/31 05:28:52;;;;;;;0.65;0.35;;;23.40;99.90;;;;;;4896762;29;20206;-73
2023/03/31 05:31:23;;;;;;;1.13;0.30;;;23.40;99.90;;;;;;4898653;29;20203;-74
2023/03/31 05:33:56;;;;;;;1.00;0.30;;;23.30;99.90;;;;;;4898304;29;20224;-74
2023/03/31 05:36:28;;;;;;;1.15;0.30;;;23.40;99.90;;;;;;4898085;29;20202;-73
2023/03/31 05:38:59;;;;;;;0.65;0.20;;;23.40;99.90;;;;;;4898211;29;20191;-74
2023/03/31 05:41:30;;;;;;;0.85;0.40;;;23.30;99.90;;;;;;4894549;29;20203;-74
2023/03/31 05:44:01;;;;;;;0.45;0.40;;;23.30;99.90;;;;;;4891654;29;20684;-75
2023/03/31 05:46:32;;;;;;;0.40;0.30;;;23.30;99.90;;;;;;4892907;29;20227;-74
2023/03/31 05:49:05;;;;;;;0.45;0.40;;;23.20;99.90;;;;;;4883594;29;20207;-75
2023/03/31 05:51:37;;;;;;;1.10;0.20;;;23.30;99.90;;;;;;4879541;29;20235;-75
2023/03/31 05:54:08;;;;;;;0.57;0.20;;;23.30;99.90;;;;;;4879247;29;20223;-73
2023/03/31 05:56:39;;;;;;;0.75;0.32;;;23.20;99.90;;;;;;4879088;29;20606;-75
2023/03/31 05:59:10;;;;;;;1.60;0.30;;;23.20;99.90;;;;;;4879381;29;20203;-74
2023/03/31 06:01:42;;;;;;;0.95;0.50;;;23.10;99.90;;;;;;4879305;29;20196;-73
2023/03/31 06:04:15;;;;;;;0.45;0.20;;;23.10;99.90;;;;;;4878876;29;20262;-74
2023/03/31 06:06:49;;;;;;;1.90;0.30;;;23.00;99.90;;;;;;4892763;29;20655;-74
2023/03/31 06:09:20;;;;;;;0.47;0.32;;;22.90;99.90;;;;;;4901553;29;20606;-74
2023/03/31 06:11:51;;;;;;;0.30;0.30;;;22.70;99.90;;;;;;4902125;29;20211;-74
2023/03/31 06:14:22;;;;;;;0.90;0.45;;;22.60;99.90;;;;;;4901719;29;20195;-74
2023/03/31 06:16:53;;;;;;;0.30;0.30;;;22.60;99.90;;;;;;4901595;29;20191;-74
2023/03/31 06:19:26;;;;;;;0.28;0.20;;;22.50;99.90;;;;;;4901542;29;20195;-73
2023/03/31 06:21:57;;;;;;;0.85;0.20;;;22.60;99.90;;;;;;4902041;29;20207;-74
2023/03/31 06:24:28;;;;;;;2.20;0.30;;;22.50;99.90;;;;;;4898053;29;20226;-73
2023/03/31 06:26:59;;;;;;;0.15;0.15;;;22.50;99.90;;;;;;4901400;29;20199;-74
2023/03/31 06:29:31;;;;;;;0.85;0.30;;;22.40;99.90;;;;;;4901398;29;20191;-74
2023/03/31 06:32:03;;;;;;;0.85;0.30;;;22.30;99.90;;;;;;4901504;29;20192;-73
2023/03/31 06:34:36;;;;;;;0.57;0.30;;;22.30;99.90;;;;;;4901434;29;20263;-73
2023/03/31 06:37:07;;;;;;;0.30;0.30;;;22.30;99.90;;;;;;4901279;29;20199;-75
2023/03/31 06:39:38;;;;;;;0.30;0.30;;;22.30;99.90;;;;;;4895494;29;20210;-76
2023/03/31 06:42:09;;;;;;;1.98;0.28;;;22.30;99.90;;;;;;4901387;29;20206;-74
2023/03/31 06:44:40;;;;;;;0.82;0.40;;;22.20;99.90;;;;;;4901175;29;20279;-76
2023/03/31 06:47:12;;;;;;;0.60;0.30;;;22.20;99.90;;;;;;4900866;29;20203;-76
2023/03/31 06:49:45;;;;;;;2.53;0.40;;;22.10;99.90;;;;;;4901048;29;20195;-77
2023/03/31 06:52:16;;;;;;;1.70;0.30;;;22.10;99.90;;;;;;4897198;29;20286;-76
2023/03/31 06:54:47;;;;;;;0.57;0.40;;;22.00;99.90;;;;;;4898144;29;20195;-76
2023/03/31 06:57:18;;;;;;;0.55;0.32;;;22.00;99.90;;;;;;4895830;29;20231;-76
2023/03/31 06:59:49;;;;;;;1.17;0.40;;;22.00;99.90;;;;;;4897156;29;20199;-75
2023/03/31 07:02:20;;;;;;;0.45;0.40;;;21.90;99.90;;;;;;4899121;29;20200;-78
2023/03/31 07:04:53;;;;;;;0.30;0.30;;;21.90;99.90;;;;;;4900697;29;20300;-76
2023/03/31 07:07:24;;;;;;;0.60;0.25;;;21.90;99.90;;;;;;4897601;29;20208;-77
2023/03/31 07:09:55;;;;;;;1.85;0.50;;;21.80;99.90;;;;;;4899743;29;20206;-76
2023/03/31 07:12:27;;;;;;;2.35;0.90;;;21.80;99.90;;;;;;4897344;29;20609;-77
2023/03/31 07:14:58;;;;;;;3.15;1.80;;;21.80;99.90;;;;;;4897343;29;20715;-75
2023/03/31 07:17:29;;;;;;;1.25;0.82;;;21.70;99.90;;;;;;4893684;29;20686;-76
2023/03/31 07:20:04;;;;;;;1.92;0.45;;;21.70;99.90;;;;;;4909557;29;20214;-77
2023/03/31 07:22:35;;;;;;;1.05;0.45;;;21.60;99.90;;;;;;4896937;29;20209;-76
2023/03/31 07:25:06;;;;;;;0.93;0.40;;;21.60;99.90;;;;;;4896555;29;20226;-76
2023/03/31 07:27:37;;;;;;;2.20;0.40;;;21.50;99.90;;;;;;4898219;29;20195;-76
2023/03/31 07:30:09;;;;;;;0.70;0.50;;;21.50;99.90;;;;;;4897336;29;20204;-78
2023/03/31 07:32:40;;;;;;;0.95;0.40;;;21.50;99.90;;;;;;4907413;29;20211;-75
2023/03/31 07:35:15;;;;;;;0.65;0.40;;;21.40;99.90;;;;;;4912518;29;20217;-75
2023/03/31 07:37:47;;;;;;;1.23;0.52;;;21.40;99.90;;;;;;4897375;29;20663;-75
2023/03/31 07:40:20;;;;;;;0.82;0.40;;;21.40;99.90;;;;;;4898382;29;20930;-75
2023/03/31 07:42:51;;;;;;;1.80;0.88;;;21.40;99.90;;;;;;4896638;29;20210;-76
2023/03/31 07:45:23;;;;;;;1.85;0.90;;;21.30;99.90;;;;;;4894793;29;20271;-76
2023/03/31 07:47:55;;;;;;;0.90;0.50;;;21.30;99.90;;;;;;4899823;29;20211;-75
2023/03/31 07:50:28;;;;;;;4.28;1.60;;;21.30;99.90;;;;;;4905212;29;20205;-76
2023/03/31 07:52:59;;;;;;;17.92;9.27;;;21.20;99.90;;;;;;4898159;29;20210;-75
2023/03/31 07:55:30;;;;;;;12.70;7.13;;;21.30;99.90;;;;;;4918271;29;20237;-75
2023/03/31 07:58:03;;;;;;;21.27;12.50;;;21.20;99.90;;;;;;4904592;29;20325;-75
2023/03/31 08:00:34;;;;;;;39.80;25.17;;;21.20;99.90;;;;;;4891839;29;20210;-76
2023/03/31 08:03:05;;;;;;;10.75;5.93;;;21.20;99.90;;;;;;4900025;29;20202;-75
2023/03/31 08:05:38;;;;;;;1.92;1.60;;;21.20;99.90;;;;;;4895357;29;20219;-75
2023/03/31 08:08:10;;;;;;;4.95;2.30;;;21.20;99.90;;;;;;4902470;29;20250;-75
2023/03/31 08:10:41;;;;;;;4.43;2.78;;;21.20;99.90;;;;;;4898715;29;20199;-75
2023/03/31 08:13:12;;;;;;;1.80;1.30;;;21.10;99.90;;;;;;4897529;29;20677;-75
2023/03/31 08:15:43;;;;;;;1.45;0.50;;;21.10;99.90;;;;;;4895994;29;20221;-75
2023/03/31 08:18:14;;;;;;;0.60;0.60;;;21.00;99.90;;;;;;4889641;29;20220;-81
2023/03/31 08:20:48;;;;;;;0.65;0.65;;;20.90;99.90;;;;;;4895647;29;20242;-76
2023/03/31 08:23:19;;;;;;;1.00;0.50;;;21.00;99.90;;;;;;4900331;29;20215;-75
2023/03/31 08:25:50;;;;;;;0.47;0.47;;;21.00;99.90;;;;;;4908104;29;20603;-76
2023/03/31 08:28:22;;;;;;;0.77;0.50;;;21.00;99.90;;;;;;4898332;29;20700;-75
2023/03/31 08:30:53;;;;;;;1.25;0.60;;;21.00;99.90;;;;;;4895591;29;20203;-76
2023/03/31 08:33:24;;;;;;;0.40;0.30;;;21.00;99.90;;;;;;4909013;29;20206;-75
2023/03/31 08:35:57;;;;;;;0.82;0.47;;;20.90;99.90;;;;;;4902902;29;20209;-75
2023/03/31 08:38:28;;;;;;;1.02;0.40;;;20.90;99.90;;;;;;4894113;29;20202;-75
2023/03/31 08:41:03;;;;;;;1.17;0.40;;;20.90;99.90;;;;;;4896223;29;20207;-75
2023/03/31 08:43:38;;;;;;;0.77;0.47;;;20.90;99.90;;;;;;4907370;29;20194;-76
2023/03/31 08:46:14;;;;;;;0.85;0.50;;;20.90;99.90;;;;;;4901250;29;20222;-75
2023/03/31 08:48:47;;;;;;;0.38;0.32;;;20.90;99.90;;;;;;4896751;29;20600;-75
2023/03/31 08:51:24;;;;;;;1.33;0.47;;;20.90;99.90;;;;;;4908577;29;20300;-75
2023/03/31 08:54:02;;;;;;;0.82;0.55;;;20.80;99.90;;;;;;4913677;29;20919;-78
2023/03/31 08:56:38;;;;;;;0.95;0.68;;;20.80;99.90;;;;;;4895214;29;20227;-76
2023/03/31 08:59:18;;;;;;;2.30;0.52;;;20.80;99.90;;;;;;4898237;29;20224;-77
2023/03/31 09:01:54;;;;;;;1.48;0.52;;;20.80;99.90;;;;;;4915265;29;20369;-75
2023/03/31 09:04:50;;;;;;;0.60;0.60;;;20.70;99.90;;;;;;4899510;29;20290;-76
2023/03/31 09:07:31;;;;;;;1.10;0.70;;;20.70;99.90;;;;;;4891866;29;20290;-75
2023/03/31 09:10:12;;;;;;;0.57;0.57;;;20.70;99.90;;;;;;4906560;29;20222;-75
2023/03/31 09:12:55;;;;;;;1.73;0.70;;;20.60;99.90;;;;;;4897179;29;20203;-74
2023/03/31 09:15:30;;;;;;;1.70;0.88;;;20.70;99.90;;;;;;4887594;29;20286;-74
2023/03/31 09:18:05;;;;;;;0.68;0.60;;;20.60;99.90;;;;;;4896293;29;20221;-74
2023/03/31 09:20:40;;;;;;;0.57;0.57;;;20.60;99.90;;;;;;4897900;29;20205;-74
2023/03/31 09:23:24;;;;;;;0.50;0.50;;;20.60;99.90;;;;;;4898465;29;20205;-74
2023/03/31 09:25:56;;;;;;;0.80;0.60;;;20.50;99.90;;;;;;4884030;29;20702;-75
2023/03/31 09:28:33;;;;;;;0.80;0.70;;;20.50;99.90;;;;;;4898235;29;20191;-75
2023/03/31 09:31:10;;;;;;;1.25;0.60;;;20.50;99.90;;;;;;4895380;29;20207;-75
2023/03/31 09:33:44;;;;;;;1.10;0.70;;;20.50;99.90;;;;;;4897628;29;20249;-74
2023/03/31 09:36:18;;;;;;;0.90;0.73;;;20.50;99.90;;;;;;4897115;29;20198;-75
2023/03/31 09:38:52;;;;;;;1.08;0.98;;;20.50;99.90;;;;;;4879625;29;20198;-75
2023/03/31 09:41:23;;;;;;;1.83;1.17;;;20.40;99.90;;;;;;4881054;29;20207;-74
2023/03/31 09:43:54;;;;;;;1.52;1.10;;;20.40;99.90;;;;;;4895046;29;20203;-77
2023/03/31 09:46:32;;;;;;;1.58;1.00;;;20.40;99.90;;;;;;4883442;29;20655;-75
2023/03/31 09:49:06;;;;;;;2.33;1.20;;;20.40;99.90;;;;;;4886326;29;20287;-75
2023/03/31 09:51:39;;;;;;;1.15;0.93;;;20.40;99.90;;;;;;4896892;29;20616;-76
2023/03/31 09:54:21;;;;;;;3.42;1.50;;;20.40;99.90;;;;;;4887187;29;20210;-75
2023/03/31 09:56:53;;;;;;;1.58;0.90;;;20.40;99.90;;;;;;4883000;29;20247;-75
2023/03/31 09:59:25;;;;;;;1.42;0.90;;;20.40;99.90;;;;;;4883616;29;20261;-79
2023/03/31 10:02:01;;;;;;;1.40;0.98;;;20.40;99.90;;;;;;4883106;29;20192;-74
2023/03/31 10:04:36;;;;;;;1.08;0.82;;;20.40;99.90;;;;;;4883199;29;20281;-76
2023/03/31 10:07:08;;;;;;;1.65;0.95;;;20.40;99.90;;;;;;4883024;29;20191;-77
2023/03/31 10:09:41;;;;;;;1.50;1.02;;;20.40;99.90;;;;;;4883043;29;20206;-75
2023/03/31 10:12:23;;;;;;;1.40;1.00;;;20.40;99.90;;;;;;4883506;29;20203;-78
2023/03/31 10:14:55;;;;;;;1.73;1.10;;;20.40;99.90;;;;;;4894733;29;20682;-78
2023/03/31 10:17:29;;;;;;;1.02;0.93;;;20.40;99.90;;;;;;4897246;29;20188;-76
2023/03/31 10:20:06;;;;;;;1.50;1.20;;;20.40;99.90;;;;;;4888880;29;20227;-75
2023/03/31 10:22:44;;;;;;;2.30;1.10;;;20.40;99.90;;;;;;4901280;29;20242;-75
2023/03/31 10:25:22;;;;;;;1.98;0.90;;;20.40;99.90;;;;;;4901241;29;20242;-75
2023/03/31 10:27:56;;;;;;;1.20;1.00;;;20.50;99.90;;;;;;4901364;29;20203;-75
2023/03/31 10:30:34;;;;;;;1.13;1.00;;;20.50;99.90;;;;;;4898435;29;20205;-74
2023/03/31 10:33:09;;;;;;;1.65;1.15;;;20.50;99.90;;;;;;4897587;29;20207;-75
2023/03/31 10:35:41;;;;;;;1.63;1.00;;;20.50;99.90;;;;;;4898623;29;20210;-77
2023/03/31 10:38:16;;;;;;;1.50;1.08;;;20.50;99.90;;;;;;4895958;29;20196;-75
2023/03/31 10:40:54;;;;;;;2.20;1.10;;;20.60;99.90;;;;;;4897909;29;20214;-75
2023/03/31 10:43:30;;;;;;;1.85;1.00;;;20.60;99.90;;;;;;4901051;29;20202;-75
2023/03/31 10:46:03;;;;;;;1.88;1.00;;;20.60;99.90;;;;;;4898058;29;20582;-75
2023/03/31 10:48:37;;;;;;;3.30;0.80;;;20.60;99.90;;;;;;4897117;29;20554;-75
2023/03/31 10:51:13;;;;;;;1.52;1.00;;;20.60;99.90;;;;;;4901011;29;20194;-75
2023/03/31 10:53:45;;;;;;;2.10;0.90;;;20.70;99.90;;;;;;4896778;29;20198;-75
2023/03/31 10:56:34;;;;;;;2.20;0.95;;;20.60;99.90;;;;;;4882172;29;20564;-76
2023/03/31 10:59:21;;;;;;;1.63;1.00;;;20.60;99.90;;;;;;4881870;29;20246;-75
2023/03/31 11:02:07;;;;;;;1.88;0.98;;;20.60;99.90;;;;;;4885452;29;20195;-76
2023/03/31 11:04:58;;;;;;;1.48;0.95;;;20.60;99.90;;;;;;4890532;29;20234;-76
2023/03/31 11:07:39;;;;;;;2.10;0.85;;;20.60;99.90;;;;;;4900078;29;20207;-75
2023/03/31 11:10:33;;;;;;;2.00;1.10;;;20.60;99.90;;;;;;4881954;29;20214;-75
2023/03/31 11:13:12;;;;;;;2.03;1.05;;;20.60;99.90;;;;;;4894393;29;20672;-75
2023/03/31 11:15:52;;;;;;;3.22;1.10;;;20.60;99.90;;;;;;4899991;29;20209;-75
2023/03/31 11:18:42;;;;;;;1.30;0.93;;;20.60;99.90;;;;;;4900724;29;20199;-75
2023/03/31 11:21:22;;;;;;;1.85;1.13;;;20.60;99.90;;;;;;4900400;29;20255;-78
2023/03/31 11:24:03;;;;;;;1.73;1.02;;;20.60;99.90;;;;;;4888185;29;20227;-74
2023/03/31 11:26:44;;;;;;;2.50;1.10;;;20.60;99.90;;;;;;4895675;29;20215;-81
2023/03/31 11:29:35;;;;;;;2.17;0.98;;;20.60;99.90;;;;;;4900068;29;20302;-75
2023/03/31 11:32:35;;;;;;;1.90;0.90;;;20.60;99.90;;;;;;4895292;29;20199;-75
2023/03/31 11:35:15;;;;;;;2.47;1.02;;;20.50;99.90;;;;;;4900123;29;20195;-75
2023/03/31 11:38:10;;;;;;;2.40;0.90;;;20.50;99.90;;;;;;4900207;29;20199;-73
2023/03/31 11:40:56;;;;;;;1.35;1.00;;;20.50;99.90;;;;;;4889660;29;20683;-76
2023/03/31 11:43:35;;;;;;;1.70;0.90;;;20.50;99.90;;;;;;4890072;29;20202;-77
2023/03/31 11:46:11;;;;;;;0.70;0.70;;;20.50;99.90;;;;;;4900115;29;20226;-76
2023/03/31 11:48:47;;;;;;;1.98;0.80;;;20.40;99.90;;;;;;4897888;29;20206;-76
2023/03/31 11:51:25;;;;;;;1.20;0.70;;;20.40;99.90;;;;;;4898285;29;20210;-79
2023/03/31 11:53:58;;;;;;;1.98;0.90;;;20.40;99.90;;;;;;4896377;29;20551;-80
2023/03/31 11:56:36;;;;;;;3.67;0.90;;;20.30;99.90;;;;;;4891675;29;20246;-82
2023/03/31 11:59:13;;;;;;;1.10;0.70;;;20.30;99.90;;;;;;4886804;29;20243;-82
2023/03/31 12:01:50;;;;;;;5.25;1.98;;;20.30;99.90;;;;;;4898404;29;20250;-75
2023/03/31 12:04:32;;;;;;;1.17;0.80;;;20.20;99.90;;;;;;4899116;29;20199;-77
2023/03/31 12:07:11;;;;;;;1.10;0.70;;;20.20;99.90;;;;;;4899416;29;20749;-76
2023/03/31 12:09:53;;;;;;;2.00;1.08;;;20.20;99.90;;;;;;4899874;29;20206;-75
2023/03/31 12:12:28;;;;;;;1.30;0.73;;;20.20;99.90;;;;;;4882457;29;20211;-75
2023/03/31 12:15:07;;;;;;;1.38;0.80;;;20.10;99.90;;;;;;4897313;29;20203;-76
2023/03/31 12:17:41;;;;;;;1.60;1.00;;;20.20;99.90;;;;;;4895519;29;20214;-78
2023/03/31 12:20:23;;;;;;;1.10;0.75;;;20.10;99.90;;;;;;4885909;29;20213;-75
2023/03/31 12:22:55;;;;;;;1.85;1.05;;;20.10;99.90;;;;;;4897359;29;20211;-76
2023/03/31 12:25:27;;;;;;;3.28;1.13;;;20.10;99.90;;;;;;4888966;29;20219;-75
2023/03/31 12:27:59;;;;;;;1.33;1.10;;;20.10;99.90;;;;;;4897815;29;20255;-76
2023/03/31 12:30:36;;;;;;;1.92;1.00;;;20.10;99.90;;;;;;4897348;29;20203;-75
2023/03/31 12:33:15;;;;;;;1.40;0.98;;;20.10;99.90;;;;;;4898142;29;20207;-75
2023/03/31 12:35:55;;;;;;;2.53;1.00;;;20.00;99.90;;;;;;4894842;29;20225;-79
2023/03/31 12:38:43;;;;;;;1.63;0.90;;;20.00;99.90;;;;;;4894976;29;20202;-75
2023/03/31 12:41:21;;;;;;;2.28;0.90;;;20.00;99.90;;;;;;4892204;29;20212;-75
2023/03/31 12:44:12;;;;;;;1.55;0.80;;;20.00;99.90;;;;;;4896851;29;20210;-75
2023/03/31 12:47:02;;;;;;;1.77;0.95;;;19.90;99.90;;;;;;4895150;29;20561;-76
2023/03/31 12:49:56;;;;;;;1.65;0.90;;;19.90;99.90;;;;;;4898110;29;20211;-77
2023/03/31 12:52:36;;;;;;;1.00;0.90;;;19.90;99.90;;;;;;4887397;29;20203;-75
2023/03/31 12:55:38;;;;;;;2.60;0.80;;;19.80;99.90;;;;;;4889042;29;20227;-75
2023/03/31 12:58:43;;;;;;;1.35;0.80;;;19.90;99.90;;;;;;4895425;29;20242;-75
2023/03/31 13:01:17;;;;;;;2.08;0.80;;;19.80;99.90;;;;;;4880293;29;20206;-75
2023/03/31 13:04:19;;;;;;;1.52;0.90;;;19.70;99.90;;;;;;4886582;29;20195;-76
2023/03/31 13:07:00;;;;;;;1.70;0.90;;;19.70;99.90;;;;;;4873315;29;20261;-77
2023/03/31 13:09:46;;;;;;;1.00;0.90;;;19.70;99.90;;;;;;4888697;29;20199;-75
2023/03/31 13:12:24;;;;;;;1.63;0.95;;;19.60;99.90;;;;;;4895114;29;20194;-78
2023/03/31 13:14:58;;;;;;;3.55;1.20;;;19.60;99.90;;;;;;4893048;29;20577;-77
2023/03/31 13:17:34;;;;;;;2.15;1.38;;;19.50;99.90;;;;;;4882890;29;20199;-75
2023/03/31 13:20:40;;;;;;;2.45;1.30;;;19.50;99.90;;;;;;4895588;29;20226;-76
2023/03/31 13:23:24;;;;;;;1.90;1.30;;;19.50;99.90;;;;;;4823158;29;20214;-81
2023/03/31 13:25:55;;;;;;;1.45;1.15;;;19.50;99.90;;;;;;4880338;29;20264;-83
2023/03/31 13:28:41;;;;;;;1.90;1.00;;;19.50;99.90;;;;;;4893678;29;20234;-75
2023/03/31 13:31:13;;;;;;;1.35;0.95;;;19.50;99.90;;;;;;4897442;29;20372;-76